Terminal Aerodrome Forecast
Issued by NWS

Home | Current Version | Previous Version | Text Only | Print | Product List | Glossary On
Versions: 1 2 3 4 5 6 7 8 9 10 11 12 13 14 15 16 17 18 19 20 21 22 23
000
FTAK31 PANC 192333
TAFACD
TAF
PACD 192333Z 2000/2024 30015KT P6SM VCSH SCT015 BKN025
      TEMPO 2000/2003 BKN015
     FM200300 30018G25KT P6SM VCSH SCT015 BKN025
     FM201800 30015KT 6SM -SHRASN SCT015 OVC025=

USA.gov is the U.S. government's official web portal to all federal, state and local government web resources and services.